sensor_id;sensor_type;location;lat;lon;timestamp;temperature;humidity
19003;DHT22;9634;51.040;13.794;2023-02-10T00:03:40;-3.10;99.90
19003;DHT22;9634;51.040;13.794;2023-02-10T00:08:47;-3.20;99.90
19003;DHT22;9634;51.040;13.794;2023-02-10T00:13:50;-3.10;99.90
19003;DHT22;9634;51.040;13.794;2023-02-10T00:18:57;-3.00;99.90
19003;DHT22;9634;51.040;13.794;2023-02-10T00:24:00;-3.10;99.90
19003;DHT22;9634;51.040;13.794;2023-02-10T00:29:02;-3.00;99.90
19003;DHT22;9634;51.040;13.794;2023-02-10T00:34:06;-3.20;99.90
19003;DHT22;9634;51.040;13.794;2023-02-10T00:39:13;-3.40;99.90
19003;DHT22;9634;51.040;13.794;2023-02-10T00:44:15;-3.30;99.90
19003;DHT22;9634;51.040;13.794;2023-02-10T00:49:19;-3.30;99.90
19003;DHT22;9634;51.040;13.794;2023-02-10T00:54:22;-3.40;99.90
19003;DHT22;9634;51.040;13.794;2023-02-10T00:59:24;-3.40;99.90
19003;DHT22;9634;51.040;13.794;2023-02-10T01:04:29;-3.40;99.90
19003;DHT22;9634;51.040;13.794;2023-02-10T01:09:32;-3.50;99.90
19003;DHT22;9634;51.040;13.794;2023-02-10T01:14:35;-3.60;99.90
19003;DHT22;9634;51.040;13.794;2023-02-10T01:19:39;-3.60;99.90
19003;DHT22;9634;51.040;13.794;2023-02-10T01:24:43;-3.50;99.90
19003;DHT22;9634;51.040;13.794;2023-02-10T01:29:45;-3.60;99.90
19003;DHT22;9634;51.040;13.794;2023-02-10T01:34:49;-3.50;99.90
19003;DHT22;9634;51.040;13.794;2023-02-10T01:39:52;-3.80;99.90
19003;DHT22;9634;51.040;13.794;2023-02-10T01:45:14;-3.80;99.90
19003;DHT22;9634;51.040;13.794;2023-02-10T01:50:21;-3.80;99.90
19003;DHT22;9634;51.040;13.794;2023-02-10T01:55:30;-3.80;99.90
19003;DHT22;9634;51.040;13.794;2023-02-10T02:00:35;-3.80;99.90
19003;DHT22;9634;51.040;13.794;2023-02-10T02:05:41;-3.80;99.90
19003;DHT22;9634;51.040;13.794;2023-02-10T02:10:54;-3.90;99.90
19003;DHT22;9634;51.040;13.794;2023-02-10T02:16:06;-4.00;99.90
19003;DHT22;9634;51.040;13.794;2023-02-10T02:21:43;-4.00;99.90
19003;DHT22;9634;51.040;13.794;2023-02-10T02:27:19;-4.00;99.90
19003;DHT22;9634;51.040;13.794;2023-02-10T02:32:27;-4.20;99.90
19003;DHT22;9634;51.040;13.794;2023-02-10T02:37:32;-4.20;99.90
19003;DHT22;9634;51.040;13.794;2023-02-10T02:42:36;-4.20;99.90
19003;DHT22;9634;51.040;13.794;2023-02-10T02:53:22;-4.30;99.90
19003;DHT22;9634;51.040;13.794;2023-02-10T02:58:32;-4.20;99.90
19003;DHT22;9634;51.040;13.794;2023-02-10T03:03:39;-4.10;99.90
19003;DHT22;9634;51.040;13.794;2023-02-10T03:08:42;-4.10;99.90
19003;DHT22;9634;51.040;13.794;2023-02-10T03:13:44;-4.00;99.90
19003;DHT22;9634;51.040;13.794;2023-02-10T03:18:48;-3.80;99.90
19003;DHT22;9634;51.040;13.794;2023-02-10T03:23:51;-3.50;99.90
19003;DHT22;9634;51.040;13.794;2023-02-10T03:28:54;-3.30;99.90
19003;DHT22;9634;51.040;13.794;2023-02-10T03:33:58;-3.00;99.90
19003;DHT22;9634;51.040;13.794;2023-02-10T03:39:00;-2.70;99.90
19003;DHT22;9634;51.040;13.794;2023-02-10T03:44:03;-2.40;99.90
19003;DHT22;9634;51.040;13.794;2023-02-10T03:49:08;-2.30;99.90
19003;DHT22;9634;51.040;13.794;2023-02-10T03:54:10;-2.20;99.90
19003;DHT22;9634;51.040;13.794;2023-02-10T03:59:13;-2.00;99.90
19003;DHT22;9634;51.040;13.794;2023-02-10T04:04:17;-2.00;99.90
19003;DHT22;9634;51.040;13.794;2023-02-10T04:09:20;-1.90;99.90
19003;DHT22;9634;51.040;13.794;2023-02-10T04:14:23;-1.60;99.90
19003;DHT22;9634;51.040;13.794;2023-02-10T04:19:27;-1.30;99.90
19003;DHT22;9634;51.040;13.794;2023-02-10T04:24:30;-1.20;99.90
19003;DHT22;9634;51.040;13.794;2023-02-10T04:29:33;-0.90;99.90
19003;DHT22;9634;51.040;13.794;2023-02-10T04:34:41;-0.90;99.90
19003;DHT22;9634;51.040;13.794;2023-02-10T04:39:43;-0.80;99.90
19003;DHT22;9634;51.040;13.794;2023-02-10T04:44:46;-0.70;99.90
19003;DHT22;9634;51.040;13.794;2023-02-10T04:49:50;-0.70;99.90
19003;DHT22;9634;51.040;13.794;2023-02-10T04:54:53;-0.50;99.90
19003;DHT22;9634;51.040;13.794;2023-02-10T04:59:56;-0.50;99.90
19003;DHT22;9634;51.040;13.794;2023-02-10T05:05:00;-0.40;99.90
19003;DHT22;9634;51.040;13.794;2023-02-10T05:10:03;-0.40;99.90
19003;DHT22;9634;51.040;13.794;2023-02-10T05:15:06;-0.20;99.90
19003;DHT22;9634;51.040;13.794;2023-02-10T05:20:13;-0.20;99.90
19003;DHT22;9634;51.040;13.794;2023-02-10T05:25:16;-0.20;99.90
19003;DHT22;9634;51.040;13.794;2023-02-10T05:30:19;-0.20;99.90
19003;DHT22;9634;51.040;13.794;2023-02-10T05:35:23;0.00;99.90
19003;DHT22;9634;51.040;13.794;2023-02-10T05:40:25;0.00;99.90
19003;DHT22;9634;51.040;13.794;2023-02-10T05:45:28;0.00;99.90
19003;DHT22;9634;51.040;13.794;2023-02-10T05:50:32;0.10;99.90
19003;DHT22;9634;51.040;13.794;2023-02-10T05:55:34;0.30;99.90
19003;DHT22;9634;51.040;13.794;2023-02-10T06:00:37;0.20;99.90
19003;DHT22;9634;51.040;13.794;2023-02-10T06:05:40;0.30;99.90
19003;DHT22;9634;51.040;13.794;2023-02-10T06:10:44;0.30;99.90
19003;DHT22;9634;51.040;13.794;2023-02-10T06:15:46;0.30;99.90
19003;DHT22;9634;51.040;13.794;2023-02-10T06:20:50;0.30;99.90
19003;DHT22;9634;51.040;13.794;2023-02-10T06:25:53;0.30;99.90
19003;DHT22;9634;51.040;13.794;2023-02-10T06:30:56;0.20;99.90
19003;DHT22;9634;51.040;13.794;2023-02-10T06:36:00;0.10;99.90
19003;DHT22;9634;51.040;13.794;2023-02-10T06:41:06;0.10;99.90
19003;DHT22;9634;51.040;13.794;2023-02-10T06:46:09;0.20;99.90
19003;DHT22;9634;51.040;13.794;2023-02-10T06:51:13;0.30;99.90
19003;DHT22;9634;51.040;13.794;2023-02-10T06:56:15;0.20;99.90
19003;DHT22;9634;51.040;13.794;2023-02-10T07:01:18;0.20;99.90
19003;DHT22;9634;51.040;13.794;2023-02-10T07:06:22;0.30;99.90
19003;DHT22;9634;51.040;13.794;2023-02-10T07:11:24;0.40;99.90
19003;DHT22;9634;51.040;13.794;2023-02-10T07:16:27;0.30;99.90
19003;DHT22;9634;51.040;13.794;2023-02-10T07:21:32;0.40;99.90
19003;DHT22;9634;51.040;13.794;2023-02-10T07:26:35;0.50;99.90
19003;DHT22;9634;51.040;13.794;2023-02-10T07:31:38;0.50;99.90
19003;DHT22;9634;51.040;13.794;2023-02-10T07:36:42;0.50;99.90
19003;DHT22;9634;51.040;13.794;2023-02-10T07:41:44;0.70;99.90
19003;DHT22;9634;51.040;13.794;2023-02-10T07:46:47;0.70;99.90
19003;DHT22;9634;51.040;13.794;2023-02-10T07:51:50;0.80;99.90
19003;DHT22;9634;51.040;13.794;2023-02-10T07:56:53;0.90;99.90
19003;DHT22;9634;51.040;13.794;2023-02-10T08:01:56;1.10;99.90
19003;DHT22;9634;51.040;13.794;2023-02-10T08:07:01;1.20;99.90
19003;DHT22;9634;51.040;13.794;2023-02-10T08:12:04;1.30;99.90
19003;DHT22;9634;51.040;13.794;2023-02-10T08:17:06;1.40;99.90
19003;DHT22;9634;51.040;13.794;2023-02-10T08:22:10;1.60;99.90
19003;DHT22;9634;51.040;13.794;2023-02-10T08:27:13;1.80;99.90
19003;DHT22;9634;51.040;13.794;2023-02-10T08:32:16;2.00;99.90
19003;DHT22;9634;51.040;13.794;2023-02-10T08:37:21;2.20;99.90
19003;DHT22;9634;51.040;13.794;2023-02-10T08:42:23;2.20;99.90
19003;DHT22;9634;51.040;13.794;2023-02-10T08:47:25;2.50;99.90
19003;DHT22;9634;51.040;13.794;2023-02-10T08:52:30;2.70;99.90
19003;DHT22;9634;51.040;13.794;2023-02-10T08:57:32;2.90;99.90
19003;DHT22;9634;51.040;13.794;2023-02-10T09:02:35;3.10;99.90
19003;DHT22;9634;51.040;13.794;2023-02-10T09:07:39;3.40;99.90
19003;DHT22;9634;51.040;13.794;2023-02-10T09:12:41;3.40;99.90
19003;DHT22;9634;51.040;13.794;2023-02-10T09:17:44;3.50;99.90
19003;DHT22;9634;51.040;13.794;2023-02-10T09:22:48;3.20;99.90
19003;DHT22;9634;51.040;13.794;2023-02-10T09:27:51;3.10;99.90
19003;DHT22;9634;51.040;13.794;2023-02-10T09:32:55;3.30;99.90
19003;DHT22;9634;51.040;13.794;2023-02-10T09:37:59;3.40;99.90
19003;DHT22;9634;51.040;13.794;2023-02-10T09:43:07;3.50;99.90
19003;DHT22;9634;51.040;13.794;2023-02-10T09:48:25;3.40;99.90
19003;DHT22;9634;51.040;13.794;2023-02-10T09:53:33;3.40;99.90
19003;DHT22;9634;51.040;13.794;2023-02-10T09:58:39;3.60;99.90
19003;DHT22;9634;51.040;13.794;2023-02-10T10:03:54;3.50;99.90
19003;DHT22;9634;51.040;13.794;2023-02-10T10:09:13;3.50;99.90
19003;DHT22;9634;51.040;13.794;2023-02-10T10:14:21;3.50;99.90
19003;DHT22;9634;51.040;13.794;2023-02-10T10:19:35;3.80;99.90
19003;DHT22;9634;51.040;13.794;2023-02-10T10:25:03;4.00;99.90
19003;DHT22;9634;51.040;13.794;2023-02-10T10:30:14;4.10;99.90
19003;DHT22;9634;51.040;13.794;2023-02-10T10:35:21;4.10;99.90
19003;DHT22;9634;51.040;13.794;2023-02-10T10:40:30;4.00;99.90
19003;DHT22;9634;51.040;13.794;2023-02-10T10:45:36;4.00;99.90
19003;DHT22;9634;51.040;13.794;2023-02-10T10:50:42;4.30;99.90
19003;DHT22;9634;51.040;13.794;2023-02-10T10:55:49;4.40;99.90
19003;DHT22;9634;51.040;13.794;2023-02-10T11:00:55;4.20;99.90
19003;DHT22;9634;51.040;13.794;2023-02-10T11:06:01;4.20;99.90
19003;DHT22;9634;51.040;13.794;2023-02-10T11:11:06;3.80;99.90
19003;DHT22;9634;51.040;13.794;2023-02-10T11:16:13;3.80;99.90
19003;DHT22;9634;51.040;13.794;2023-02-10T11:21:16;3.90;99.90
19003;DHT22;9634;51.040;13.794;2023-02-10T11:26:22;3.90;99.90
19003;DHT22;9634;51.040;13.794;2023-02-10T11:31:30;3.60;99.90
19003;DHT22;9634;51.040;13.794;2023-02-10T11:36:35;3.80;99.90
19003;DHT22;9634;51.040;13.794;2023-02-10T11:41:40;3.90;99.90
19003;DHT22;9634;51.040;13.794;2023-02-10T11:46:43;3.80;99.90
19003;DHT22;9634;51.040;13.794;2023-02-10T11:51:57;3.80;99.90
19003;DHT22;9634;51.040;13.794;2023-02-10T11:57:13;3.80;99.90
19003;DHT22;9634;51.040;13.794;2023-02-10T12:02:41;3.90;99.90
19003;DHT22;9634;51.040;13.794;2023-02-10T12:08:04;3.90;99.90
19003;DHT22;9634;51.040;13.794;2023-02-10T12:13:22;4.10;99.90
19003;DHT22;9634;51.040;13.794;2023-02-10T12:18:50;4.40;99.90
19003;DHT22;9634;51.040;13.794;2023-02-10T12:24:02;4.50;99.90
19003;DHT22;9634;51.040;13.794;2023-02-10T12:29:23;5.20;99.90
19003;DHT22;9634;51.040;13.794;2023-02-10T12:34:40;6.00;99.90
19003;DHT22;9634;51.040;13.794;2023-02-10T12:39:51;6.10;99.90
19003;DHT22;9634;51.040;13.794;2023-02-10T12:45:07;6.00;99.90
19003;DHT22;9634;51.040;13.794;2023-02-10T12:50:26;5.80;99.90
19003;DHT22;9634;51.040;13.794;2023-02-10T12:55:44;6.00;99.90
19003;DHT22;9634;51.040;13.794;2023-02-10T13:00:55;6.10;99.90
19003;DHT22;9634;51.040;13.794;2023-02-10T13:06:06;7.00;99.90
19003;DHT22;9634;51.040;13.794;2023-02-10T13:11:17;7.50;99.90
19003;DHT22;9634;51.040;13.794;2023-02-10T13:16:26;7.90;99.90
19003;DHT22;9634;51.040;13.794;2023-02-10T13:21:35;7.70;99.90
19003;DHT22;9634;51.040;13.794;2023-02-10T13:26:57;8.20;99.90
19003;DHT22;9634;51.040;13.794;2023-02-10T13:32:19;8.70;99.90
19003;DHT22;9634;51.040;13.794;2023-02-10T13:37:30;8.60;97.50
19003;DHT22;9634;51.040;13.794;2023-02-10T13:42:36;8.10;97.60
19003;DHT22;9634;51.040;13.794;2023-02-10T13:47:47;8.30;97.40
19003;DHT22;9634;51.040;13.794;2023-02-10T13:52:52;8.70;95.30
19003;DHT22;9634;51.040;13.794;2023-02-10T13:57:56;8.30;96.00
19003;DHT22;9634;51.040;13.794;2023-02-10T14:03:18;7.80;96.90
19003;DHT22;9634;51.040;13.794;2023-02-10T14:08:31;7.30;99.90
19003;DHT22;9634;51.040;13.794;2023-02-10T14:13:35;7.50;99.90
19003;DHT22;9634;51.040;13.794;2023-02-10T14:18:40;7.10;99.90
19003;DHT22;9634;51.040;13.794;2023-02-10T14:23:50;6.60;99.90
19003;DHT22;9634;51.040;13.794;2023-02-10T14:28:56;6.40;99.90
19003;DHT22;9634;51.040;13.794;2023-02-10T14:34:02;6.30;99.90
19003;DHT22;9634;51.040;13.794;2023-02-10T14:39:15;6.20;99.90
19003;DHT22;9634;51.040;13.794;2023-02-10T14:44:25;6.20;99.90
19003;DHT22;9634;51.040;13.794;2023-02-10T14:49:30;6.40;99.90
19003;DHT22;9634;51.040;13.794;2023-02-10T14:54:38;6.40;99.90
19003;DHT22;9634;51.040;13.794;2023-02-10T14:59:42;6.40;99.90
19003;DHT22;9634;51.040;13.794;2023-02-10T15:04:48;6.30;99.90
19003;DHT22;9634;51.040;13.794;2023-02-10T15:09:54;6.20;99.90
19003;DHT22;9634;51.040;13.794;2023-02-10T15:15:01;6.20;99.90
19003;DHT22;9634;51.040;13.794;2023-02-10T15:20:24;6.20;99.90
19003;DHT22;9634;51.040;13.794;2023-02-10T15:25:31;6.10;99.90
19003;DHT22;9634;51.040;13.794;2023-02-10T15:30:43;6.00;99.90
19003;DHT22;9634;51.040;13.794;2023-02-10T15:35:54;5.90;99.90
19003;DHT22;9634;51.040;13.794;2023-02-10T15:40:57;5.70;99.90
19003;DHT22;9634;51.040;13.794;2023-02-10T15:46:06;5.50;99.90
19003;DHT22;9634;51.040;13.794;2023-02-10T15:51:18;5.40;99.90
19003;DHT22;9634;51.040;13.794;2023-02-10T15:56:23;5.30;99.90
19003;DHT22;9634;51.040;13.794;2023-02-10T16:01:26;5.30;99.90
19003;DHT22;9634;51.040;13.794;2023-02-10T16:06:30;5.20;99.90
19003;DHT22;9634;51.040;13.794;2023-02-10T16:11:33;5.00;99.90
19003;DHT22;9634;51.040;13.794;2023-02-10T16:16:36;5.00;99.90
19003;DHT22;9634;51.040;13.794;2023-02-10T16:21:41;4.80;99.90
19003;DHT22;9634;51.040;13.794;2023-02-10T16:26:44;4.80;99.90
19003;DHT22;9634;51.040;13.794;2023-02-10T16:31:47;4.70;99.90
19003;DHT22;9634;51.040;13.794;2023-02-10T16:36:51;4.60;99.90
19003;DHT22;9634;51.040;13.794;2023-02-10T16:41:54;4.60;99.90
19003;DHT22;9634;51.040;13.794;2023-02-10T16:46:57;4.60;99.90
19003;DHT22;9634;51.040;13.794;2023-02-10T16:52:01;4.60;99.90
19003;DHT22;9634;51.040;13.794;2023-02-10T16:57:04;4.50;99.90
19003;DHT22;9634;51.040;13.794;2023-02-10T17:02:06;4.40;99.90
19003;DHT22;9634;51.040;13.794;2023-02-10T17:07:11;4.00;99.90
19003;DHT22;9634;51.040;13.794;2023-02-10T17:12:14;3.90;99.90
19003;DHT22;9634;51.040;13.794;2023-02-10T17:17:17;3.70;99.90
19003;DHT22;9634;51.040;13.794;2023-02-10T17:22:20;3.40;99.90
19003;DHT22;9634;51.040;13.794;2023-02-10T17:27:23;3.20;99.90
19003;DHT22;9634;51.040;13.794;2023-02-10T17:32:25;3.20;99.90
19003;DHT22;9634;51.040;13.794;2023-02-10T17:37:30;3.10;99.90
19003;DHT22;9634;51.040;13.794;2023-02-10T17:42:33;3.00;99.90
19003;DHT22;9634;51.040;13.794;2023-02-10T17:47:35;2.90;99.90
19003;DHT22;9634;51.040;13.794;2023-02-10T17:52:39;2.80;99.90
19003;DHT22;9634;51.040;13.794;2023-02-10T17:57:42;2.70;99.90
19003;DHT22;9634;51.040;13.794;2023-02-10T18:02:45;2.70;99.90
19003;DHT22;9634;51.040;13.794;2023-02-10T18:07:48;2.70;99.90
19003;DHT22;9634;51.040;13.794;2023-02-10T18:12:51;2.60;99.90
19003;DHT22;9634;51.040;13.794;2023-02-10T18:17:54;2.50;99.90
19003;DHT22;9634;51.040;13.794;2023-02-10T18:22:57;2.50;99.90
19003;DHT22;9634;51.040;13.794;2023-02-10T18:28:00;2.40;99.90
19003;DHT22;9634;51.040;13.794;2023-02-10T18:33:03;2.40;99.90
19003;DHT22;9634;51.040;13.794;2023-02-10T18:38:08;2.50;99.90
19003;DHT22;9634;51.040;13.794;2023-02-10T18:43:10;2.60;99.90
19003;DHT22;9634;51.040;13.794;2023-02-10T18:48:13;2.60;99.90
19003;DHT22;9634;51.040;13.794;2023-02-10T18:53:18;2.60;99.90
19003;DHT22;9634;51.040;13.794;2023-02-10T18:58:20;2.50;99.90
19003;DHT22;9634;51.040;13.794;2023-02-10T19:03:24;2.50;99.90
19003;DHT22;9634;51.040;13.794;2023-02-10T19:08:28;2.50;99.90
19003;DHT22;9634;51.040;13.794;2023-02-10T19:13:31;2.50;99.90
19003;DHT22;9634;51.040;13.794;2023-02-10T19:18:34;2.40;99.90
19003;DHT22;9634;51.040;13.794;2023-02-10T19:23:40;2.20;99.90
19003;DHT22;9634;51.040;13.794;2023-02-10T19:28:43;2.00;99.90
19003;DHT22;9634;51.040;13.794;2023-02-10T19:33:46;1.90;99.90
19003;DHT22;9634;51.040;13.794;2023-02-10T19:38:50;1.80;99.90
19003;DHT22;9634;51.040;13.794;2023-02-10T19:43:52;1.60;99.90
19003;DHT22;9634;51.040;13.794;2023-02-10T19:48:57;1.50;99.90
19003;DHT22;9634;51.040;13.794;2023-02-10T19:54:01;1.60;99.90
19003;DHT22;9634;51.040;13.794;2023-02-10T19:59:04;1.40;99.90
19003;DHT22;9634;51.040;13.794;2023-02-10T20:04:07;1.20;99.90
19003;DHT22;9634;51.040;13.794;2023-02-10T20:09:11;0.90;99.90
19003;DHT22;9634;51.040;13.794;2023-02-10T20:14:14;0.80;99.90
19003;DHT22;9634;51.040;13.794;2023-02-10T20:19:17;0.70;99.90
19003;DHT22;9634;51.040;13.794;2023-02-10T20:24:21;0.70;99.90
19003;DHT22;9634;51.040;13.794;2023-02-10T20:29:23;0.60;99.90
19003;DHT22;9634;51.040;13.794;2023-02-10T20:34:26;0.70;99.90
19003;DHT22;9634;51.040;13.794;2023-02-10T20:39:30;0.80;99.90
19003;DHT22;9634;51.040;13.794;2023-02-10T20:44:33;1.10;99.90
19003;DHT22;9634;51.040;13.794;2023-02-10T20:49:35;1.60;99.90
19003;DHT22;9634;51.040;13.794;2023-02-10T20:54:39;1.70;99.90
19003;DHT22;9634;51.040;13.794;2023-02-10T20:59:42;1.80;99.90
19003;DHT22;9634;51.040;13.794;2023-02-10T21:04:47;1.80;99.90
19003;DHT22;9634;51.040;13.794;2023-02-10T21:09:51;1.80;99.90
19003;DHT22;9634;51.040;13.794;2023-02-10T21:14:53;1.80;99.90
19003;DHT22;9634;51.040;13.794;2023-02-10T21:19:56;1.60;99.90
19003;DHT22;9634;51.040;13.794;2023-02-10T21:24:59;1.80;99.90
19003;DHT22;9634;51.040;13.794;2023-02-10T21:30:02;1.80;99.90
19003;DHT22;9634;51.040;13.794;2023-02-10T21:35:06;1.90;99.90
19003;DHT22;9634;51.040;13.794;2023-02-10T21:40:10;1.80;99.90
19003;DHT22;9634;51.040;13.794;2023-02-10T21:45:13;2.00;99.90
19003;DHT22;9634;51.040;13.794;2023-02-10T21:50:16;2.10;99.90
19003;DHT22;9634;51.040;13.794;2023-02-10T21:55:20;2.00;99.90
19003;DHT22;9634;51.040;13.794;2023-02-10T22:00:22;2.10;99.90
19003;DHT22;9634;51.040;13.794;2023-02-10T22:05:25;2.20;99.90
19003;DHT22;9634;51.040;13.794;2023-02-10T22:10:29;2.30;99.90
19003;DHT22;9634;51.040;13.794;2023-02-10T22:15:32;2.40;99.90
19003;DHT22;9634;51.040;13.794;2023-02-10T22:20:35;2.40;99.90
19003;DHT22;9634;51.040;13.794;2023-02-10T22:25:43;2.40;99.90
19003;DHT22;9634;51.040;13.794;2023-02-10T22:30:45;2.20;99.90
19003;DHT22;9634;51.040;13.794;2023-02-10T22:35:48;2.30;99.90
19003;DHT22;9634;51.040;13.794;2023-02-10T22:40:52;2.30;99.90
19003;DHT22;9634;51.040;13.794;2023-02-10T22:45:55;2.40;99.90
19003;DHT22;9634;51.040;13.794;2023-02-10T22:51:06;2.50;99.90
19003;DHT22;9634;51.040;13.794;2023-02-10T22:56:12;2.40;99.90
19003;DHT22;9634;51.040;13.794;2023-02-10T23:01:23;2.30;99.90
19003;DHT22;9634;51.040;13.794;2023-02-10T23:06:26;2.40;99.90
19003;DHT22;9634;51.040;13.794;2023-02-10T23:11:31;2.40;99.90
19003;DHT22;9634;51.040;13.794;2023-02-10T23:16:34;2.10;99.90
19003;DHT22;9634;51.040;13.794;2023-02-10T23:21:37;1.70;99.90
19003;DHT22;9634;51.040;13.794;2023-02-10T23:26:44;1.30;99.90
19003;DHT22;9634;51.040;13.794;2023-02-10T23:31:47;1.20;99.90
19003;DHT22;9634;51.040;13.794;2023-02-10T23:36:50;1.00;99.90
19003;DHT22;9634;51.040;13.794;2023-02-10T23:41:53;0.90;99.90
19003;DHT22;9634;51.040;13.794;2023-02-10T23:46:56;0.80;99.90
19003;DHT22;9634;51.040;13.794;2023-02-10T23:51:59;0.70;99.90
19003;DHT22;9634;51.040;13.794;2023-02-10T23:57:03;0.80;99.90
